sensor_id;sensor_type;location;lat;lon;timestamp;temperature;humidity
16404;DHT22;8311;50.158;8.642;2023-08-06T00:02:11;22.60;63.70
16404;DHT22;8311;50.158;8.642;2023-08-06T00:05:05;22.60;63.70
16404;DHT22;8311;50.158;8.642;2023-08-06T00:07:58;22.60;63.70
16404;DHT22;8311;50.158;8.642;2023-08-06T00:10:51;22.60;63.60
16404;DHT22;8311;50.158;8.642;2023-08-06T00:13:44;22.60;63.60
16404;DHT22;8311;50.158;8.642;2023-08-06T00:16:37;22.60;63.60
16404;DHT22;8311;50.158;8.642;2023-08-06T00:19:32;22.60;63.60
16404;DHT22;8311;50.158;8.642;2023-08-06T00:22:26;22.60;63.60
16404;DHT22;8311;50.158;8.642;2023-08-06T00:25:18;22.60;63.60
16404;DHT22;8311;50.158;8.642;2023-08-06T00:28:11;22.60;63.60
16404;DHT22;8311;50.158;8.642;2023-08-06T00:31:05;22.60;63.60
16404;DHT22;8311;50.158;8.642;2023-08-06T00:33:59;22.60;63.70
16404;DHT22;8311;50.158;8.642;2023-08-06T00:36:53;22.60;63.60
16404;DHT22;8311;50.158;8.642;2023-08-06T00:39:46;22.60;63.60
16404;DHT22;8311;50.158;8.642;2023-08-06T00:42:39;22.60;63.60
16404;DHT22;8311;50.158;8.642;2023-08-06T00:45:35;22.60;63.70
16404;DHT22;8311;50.158;8.642;2023-08-06T00:48:28;22.60;63.60
16404;DHT22;8311;50.158;8.642;2023-08-06T00:51:22;22.60;63.70
16404;DHT22;8311;50.158;8.642;2023-08-06T00:54:17;22.60;63.60
16404;DHT22;8311;50.158;8.642;2023-08-06T00:57:11;22.60;63.80
16404;DHT22;8311;50.158;8.642;2023-08-06T01:00:05;22.60;64.40
16404;DHT22;8311;50.158;8.642;2023-08-06T01:03:00;22.60;63.60
16404;DHT22;8311;50.158;8.642;2023-08-06T01:05:53;22.60;63.70
16404;DHT22;8311;50.158;8.642;2023-08-06T01:08:53;22.60;63.80
16404;DHT22;8311;50.158;8.642;2023-08-06T01:11:57;22.60;63.80
16404;DHT22;8311;50.158;8.642;2023-08-06T01:14:57;22.60;63.70
16404;DHT22;8311;50.158;8.642;2023-08-06T01:17:53;22.60;63.90
16404;DHT22;8311;50.158;8.642;2023-08-06T01:20:48;22.60;63.90
16404;DHT22;8311;50.158;8.642;2023-08-06T01:23:42;22.60;64.00
16404;DHT22;8311;50.158;8.642;2023-08-06T01:26:41;22.60;63.90
16404;DHT22;8311;50.158;8.642;2023-08-06T01:29:39;22.60;64.00
16404;DHT22;8311;50.158;8.642;2023-08-06T01:32:35;22.60;63.90
16404;DHT22;8311;50.158;8.642;2023-08-06T01:35:31;22.60;64.00
16404;DHT22;8311;50.158;8.642;2023-08-06T01:38:27;22.60;63.90
16404;DHT22;8311;50.158;8.642;2023-08-06T01:41:20;22.60;64.00
16404;DHT22;8311;50.158;8.642;2023-08-06T01:44:14;22.60;64.00
16404;DHT22;8311;50.158;8.642;2023-08-06T01:47:07;22.60;63.90
16404;DHT22;8311;50.158;8.642;2023-08-06T01:50:01;22.60;64.00
16404;DHT22;8311;50.158;8.642;2023-08-06T01:52:54;22.60;64.00
16404;DHT22;8311;50.158;8.642;2023-08-06T01:55:49;22.60;64.10
16404;DHT22;8311;50.158;8.642;2023-08-06T01:58:42;22.60;64.10
16404;DHT22;8311;50.158;8.642;2023-08-06T02:01:36;22.60;64.10
16404;DHT22;8311;50.158;8.642;2023-08-06T02:04:28;22.60;64.00
16404;DHT22;8311;50.158;8.642;2023-08-06T02:07:22;22.60;64.10
16404;DHT22;8311;50.158;8.642;2023-08-06T02:10:14;22.60;64.10
16404;DHT22;8311;50.158;8.642;2023-08-06T02:13:09;22.60;64.10
16404;DHT22;8311;50.158;8.642;2023-08-06T02:16:03;22.60;64.10
16404;DHT22;8311;50.158;8.642;2023-08-06T02:18:57;22.60;64.10
16404;DHT22;8311;50.158;8.642;2023-08-06T02:21:50;22.60;64.10
16404;DHT22;8311;50.158;8.642;2023-08-06T02:24:43;22.60;64.10
16404;DHT22;8311;50.158;8.642;2023-08-06T02:27:37;22.60;64.10
16404;DHT22;8311;50.158;8.642;2023-08-06T02:30:32;22.60;64.10
16404;DHT22;8311;50.158;8.642;2023-08-06T02:33:26;22.60;64.10
16404;DHT22;8311;50.158;8.642;2023-08-06T02:36:18;22.60;64.10
16404;DHT22;8311;50.158;8.642;2023-08-06T02:39:12;22.60;64.10
16404;DHT22;8311;50.158;8.642;2023-08-06T02:42:06;22.60;64.10
16404;DHT22;8311;50.158;8.642;2023-08-06T02:44:59;22.60;64.10
16404;DHT22;8311;50.158;8.642;2023-08-06T02:47:54;22.50;64.10
16404;DHT22;8311;50.158;8.642;2023-08-06T02:50:46;22.60;64.20
16404;DHT22;8311;50.158;8.642;2023-08-06T02:53:40;22.60;64.10
16404;DHT22;8311;50.158;8.642;2023-08-06T02:56:33;22.60;64.10
16404;DHT22;8311;50.158;8.642;2023-08-06T02:59:27;22.60;64.10
16404;DHT22;8311;50.158;8.642;2023-08-06T03:02:20;22.50;64.10
16404;DHT22;8311;50.158;8.642;2023-08-06T03:05:15;22.50;64.90
16404;DHT22;8311;50.158;8.642;2023-08-06T03:08:09;22.60;64.10
16404;DHT22;8311;50.158;8.642;2023-08-06T03:11:01;22.60;64.10
16404;DHT22;8311;50.158;8.642;2023-08-06T03:13:55;22.50;64.10
16404;DHT22;8311;50.158;8.642;2023-08-06T03:16:47;22.50;64.10
16404;DHT22;8311;50.158;8.642;2023-08-06T03:19:40;22.60;64.20
16404;DHT22;8311;50.158;8.642;2023-08-06T03:22:35;22.60;64.10
16404;DHT22;8311;50.158;8.642;2023-08-06T03:25:28;22.60;64.10
16404;DHT22;8311;50.158;8.642;2023-08-06T03:28:21;22.60;64.10
16404;DHT22;8311;50.158;8.642;2023-08-06T03:31:15;22.60;64.10
16404;DHT22;8311;50.158;8.642;2023-08-06T03:34:09;22.50;64.20
16404;DHT22;8311;50.158;8.642;2023-08-06T03:37:02;22.50;64.20
16404;DHT22;8311;50.158;8.642;2023-08-06T03:39:56;22.50;64.10
16404;DHT22;8311;50.158;8.642;2023-08-06T03:42:49;22.50;64.20
16404;DHT22;8311;50.158;8.642;2023-08-06T03:45:43;22.50;64.10
16404;DHT22;8311;50.158;8.642;2023-08-06T03:48:35;22.50;64.10
16404;DHT22;8311;50.158;8.642;2023-08-06T03:51:29;22.60;64.20
16404;DHT22;8311;50.158;8.642;2023-08-06T03:54:22;22.50;64.20
16404;DHT22;8311;50.158;8.642;2023-08-06T03:57:17;22.50;64.20
16404;DHT22;8311;50.158;8.642;2023-08-06T04:00:10;22.60;64.20
16404;DHT22;8311;50.158;8.642;2023-08-06T04:03:05;22.60;64.30
16404;DHT22;8311;50.158;8.642;2023-08-06T04:05:59;22.50;64.20
16404;DHT22;8311;50.158;8.642;2023-08-06T04:08:53;22.50;64.20
16404;DHT22;8311;50.158;8.642;2023-08-06T04:11:46;22.50;64.20
16404;DHT22;8311;50.158;8.642;2023-08-06T04:14:40;22.60;64.30
16404;DHT22;8311;50.158;8.642;2023-08-06T04:17:33;22.50;64.20
16404;DHT22;8311;50.158;8.642;2023-08-06T04:20:27;22.50;64.20
16404;DHT22;8311;50.158;8.642;2023-08-06T04:23:20;22.50;64.20
16404;DHT22;8311;50.158;8.642;2023-08-06T04:26:14;22.50;64.20
16404;DHT22;8311;50.158;8.642;2023-08-06T04:29:07;22.60;64.30
16404;DHT22;8311;50.158;8.642;2023-08-06T04:32:05;22.50;64.30
16404;DHT22;8311;50.158;8.642;2023-08-06T04:34:57;22.50;65.00
16404;DHT22;8311;50.158;8.642;2023-08-06T04:37:51;22.60;64.40
16404;DHT22;8311;50.158;8.642;2023-08-06T04:40:44;22.60;64.40
16404;DHT22;8311;50.158;8.642;2023-08-06T04:43:37;22.50;64.30
16404;DHT22;8311;50.158;8.642;2023-08-06T04:46:31;22.50;64.30
16404;DHT22;8311;50.158;8.642;2023-08-06T04:49:25;22.50;64.30
16404;DHT22;8311;50.158;8.642;2023-08-06T04:52:19;22.50;64.30
16404;DHT22;8311;50.158;8.642;2023-08-06T04:55:12;22.60;64.40
16404;DHT22;8311;50.158;8.642;2023-08-06T04:58:05;22.50;64.40
16404;DHT22;8311;50.158;8.642;2023-08-06T05:00:57;22.60;64.40
16404;DHT22;8311;50.158;8.642;2023-08-06T05:03:50;22.60;64.40
16404;DHT22;8311;50.158;8.642;2023-08-06T05:06:45;22.50;64.30
16404;DHT22;8311;50.158;8.642;2023-08-06T05:09:38;22.50;64.30
16404;DHT22;8311;50.158;8.642;2023-08-06T05:12:32;22.50;64.30
16404;DHT22;8311;50.158;8.642;2023-08-06T05:15:25;22.50;64.40
16404;DHT22;8311;50.158;8.642;2023-08-06T05:18:18;22.50;64.30
16404;DHT22;8311;50.158;8.642;2023-08-06T05:21:11;22.50;64.30
16404;DHT22;8311;50.158;8.642;2023-08-06T05:24:05;22.50;64.40
16404;DHT22;8311;50.158;8.642;2023-08-06T05:26:59;22.50;64.40
16404;DHT22;8311;50.158;8.642;2023-08-06T05:29:55;22.50;64.40
16404;DHT22;8311;50.158;8.642;2023-08-06T05:32:48;22.50;64.30
16404;DHT22;8311;50.158;8.642;2023-08-06T05:35:42;22.50;64.40
16404;DHT22;8311;50.158;8.642;2023-08-06T05:38:35;22.50;64.40
16404;DHT22;8311;50.158;8.642;2023-08-06T05:41:30;22.50;64.40
16404;DHT22;8311;50.158;8.642;2023-08-06T05:44:24;22.50;64.40
16404;DHT22;8311;50.158;8.642;2023-08-06T05:47:17;22.50;64.40
16404;DHT22;8311;50.158;8.642;2023-08-06T05:50:12;22.50;64.40
16404;DHT22;8311;50.158;8.642;2023-08-06T05:53:05;22.60;64.50
16404;DHT22;8311;50.158;8.642;2023-08-06T05:55:58;22.50;64.40
16404;DHT22;8311;50.158;8.642;2023-08-06T05:58:53;22.50;64.50
16404;DHT22;8311;50.158;8.642;2023-08-06T06:01:46;22.50;64.40
16404;DHT22;8311;50.158;8.642;2023-08-06T06:04:40;22.50;64.50
16404;DHT22;8311;50.158;8.642;2023-08-06T06:07:34;22.50;64.40
16404;DHT22;8311;50.158;8.642;2023-08-06T06:10:26;22.50;64.50
16404;DHT22;8311;50.158;8.642;2023-08-06T06:13:20;22.50;64.50
16404;DHT22;8311;50.158;8.642;2023-08-06T06:16:14;22.50;64.50
16404;DHT22;8311;50.158;8.642;2023-08-06T06:19:07;22.50;64.50
16404;DHT22;8311;50.158;8.642;2023-08-06T06:22:01;22.50;64.50
16404;DHT22;8311;50.158;8.642;2023-08-06T06:24:54;22.50;64.50
16404;DHT22;8311;50.158;8.642;2023-08-06T06:27:47;22.50;64.50
16404;DHT22;8311;50.158;8.642;2023-08-06T06:30:41;22.50;64.50
16404;DHT22;8311;50.158;8.642;2023-08-06T06:33:36;22.50;64.50
16404;DHT22;8311;50.158;8.642;2023-08-06T06:36:29;22.50;64.50
16404;DHT22;8311;50.158;8.642;2023-08-06T06:39:23;22.50;64.60
16404;DHT22;8311;50.158;8.642;2023-08-06T06:42:17;22.50;64.60
16404;DHT22;8311;50.158;8.642;2023-08-06T06:45:13;22.50;64.50
16404;DHT22;8311;50.158;8.642;2023-08-06T06:48:06;22.50;64.60
16404;DHT22;8311;50.158;8.642;2023-08-06T06:51:00;22.50;64.50
16404;DHT22;8311;50.158;8.642;2023-08-06T06:53:54;22.50;64.50
16404;DHT22;8311;50.158;8.642;2023-08-06T06:56:47;22.50;64.50
16404;DHT22;8311;50.158;8.642;2023-08-06T06:59:40;22.50;64.50
16404;DHT22;8311;50.158;8.642;2023-08-06T07:02:33;22.50;64.50
16404;DHT22;8311;50.158;8.642;2023-08-06T07:05:27;22.50;64.40
16404;DHT22;8311;50.158;8.642;2023-08-06T07:08:21;22.50;64.40
16404;DHT22;8311;50.158;8.642;2023-08-06T07:11:15;22.50;64.40
16404;DHT22;8311;50.158;8.642;2023-08-06T07:14:08;22.50;64.30
16404;DHT22;8311;50.158;8.642;2023-08-06T07:17:01;22.50;64.30
16404;DHT22;8311;50.158;8.642;2023-08-06T07:19:54;22.50;64.40
16404;DHT22;8311;50.158;8.642;2023-08-06T07:22:47;22.50;64.20
16404;DHT22;8311;50.158;8.642;2023-08-06T07:25:43;22.50;64.30
16404;DHT22;8311;50.158;8.642;2023-08-06T07:28:36;22.50;64.30
16404;DHT22;8311;50.158;8.642;2023-08-06T07:31:29;22.50;64.20
16404;DHT22;8311;50.158;8.642;2023-08-06T07:34:23;22.50;64.10
16404;DHT22;8311;50.158;8.642;2023-08-06T07:37:16;22.50;64.10
16404;DHT22;8311;50.158;8.642;2023-08-06T07:40:11;22.50;64.10
16404;DHT22;8311;50.158;8.642;2023-08-06T07:43:05;22.50;64.10
16404;DHT22;8311;50.158;8.642;2023-08-06T07:45:58;22.50;64.00
16404;DHT22;8311;50.158;8.642;2023-08-06T07:48:53;22.50;64.10
16404;DHT22;8311;50.158;8.642;2023-08-06T07:51:46;22.50;64.00
16404;DHT22;8311;50.158;8.642;2023-08-06T07:54:38;22.50;64.00
16404;DHT22;8311;50.158;8.642;2023-08-06T07:57:32;22.50;64.00
16404;DHT22;8311;50.158;8.642;2023-08-06T08:00:27;22.50;64.00
16404;DHT22;8311;50.158;8.642;2023-08-06T08:03:21;22.50;63.90
16404;DHT22;8311;50.158;8.642;2023-08-06T08:06:15;22.50;63.90
16404;DHT22;8311;50.158;8.642;2023-08-06T08:09:08;22.50;64.00
16404;DHT22;8311;50.158;8.642;2023-08-06T08:12:01;22.50;63.90
16404;DHT22;8311;50.158;8.642;2023-08-06T08:14:55;22.50;63.90
16404;DHT22;8311;50.158;8.642;2023-08-06T08:17:49;22.50;63.90
16404;DHT22;8311;50.158;8.642;2023-08-06T08:20:42;22.50;63.90
16404;DHT22;8311;50.158;8.642;2023-08-06T08:23:35;22.50;63.80
16404;DHT22;8311;50.158;8.642;2023-08-06T08:26:28;22.50;63.80
16404;DHT22;8311;50.158;8.642;2023-08-06T08:29:22;22.50;63.80
16404;DHT22;8311;50.158;8.642;2023-08-06T08:32:16;22.50;63.80
16404;DHT22;8311;50.158;8.642;2023-08-06T08:35:10;22.50;63.80
16404;DHT22;8311;50.158;8.642;2023-08-06T08:38:04;22.50;63.80
16404;DHT22;8311;50.158;8.642;2023-08-06T08:40:57;22.50;63.80
16404;DHT22;8311;50.158;8.642;2023-08-06T08:43:50;22.50;63.80
16404;DHT22;8311;50.158;8.642;2023-08-06T08:46:44;22.50;63.80
16404;DHT22;8311;50.158;8.642;2023-08-06T08:49:38;22.50;63.80
16404;DHT22;8311;50.158;8.642;2023-08-06T08:52:35;22.50;63.90
16404;DHT22;8311;50.158;8.642;2023-08-06T08:55:29;22.50;63.90
16404;DHT22;8311;50.158;8.642;2023-08-06T08:58:22;22.50;63.90
16404;DHT22;8311;50.158;8.642;2023-08-06T09:01:15;22.50;63.90
16404;DHT22;8311;50.158;8.642;2023-08-06T09:04:10;22.50;64.00
16404;DHT22;8311;50.158;8.642;2023-08-06T09:07:05;22.50;64.00
16404;DHT22;8311;50.158;8.642;2023-08-06T09:10:03;22.50;64.00
16404;DHT22;8311;50.158;8.642;2023-08-06T09:12:57;22.50;64.00
16404;DHT22;8311;50.158;8.642;2023-08-06T09:15:51;22.50;64.00
16404;DHT22;8311;50.158;8.642;2023-08-06T09:18:44;22.50;64.00
16404;DHT22;8311;50.158;8.642;2023-08-06T09:21:37;22.50;64.00
16404;DHT22;8311;50.158;8.642;2023-08-06T09:24:31;22.50;64.00
16404;DHT22;8311;50.158;8.642;2023-08-06T09:27:25;22.50;64.00
16404;DHT22;8311;50.158;8.642;2023-08-06T09:30:29;22.50;64.00
16404;DHT22;8311;50.158;8.642;2023-08-06T09:33:23;22.50;64.00
16404;DHT22;8311;50.158;8.642;2023-08-06T09:36:16;22.50;64.20
16404;DHT22;8311;50.158;8.642;2023-08-06T09:39:13;22.50;64.00
16404;DHT22;8311;50.158;8.642;2023-08-06T09:42:07;22.50;64.20
16404;DHT22;8311;50.158;8.642;2023-08-06T09:45:07;22.50;64.00
16404;DHT22;8311;50.158;8.642;2023-08-06T09:48:00;22.50;64.50
16404;DHT22;8311;50.158;8.642;2023-08-06T09:50:56;22.50;65.10
16404;DHT22;8311;50.158;8.642;2023-08-06T09:53:50;22.50;64.30
16404;DHT22;8311;50.158;8.642;2023-08-06T09:56:44;22.50;64.70
16404;DHT22;8311;50.158;8.642;2023-08-06T09:59:38;22.60;64.60
16404;DHT22;8311;50.158;8.642;2023-08-06T10:02:34;22.60;64.60
16404;DHT22;8311;50.158;8.642;2023-08-06T10:05:28;22.60;64.60
16404;DHT22;8311;50.158;8.642;2023-08-06T10:08:23;22.60;64.20
16404;DHT22;8311;50.158;8.642;2023-08-06T10:11:17;22.60;64.20
16404;DHT22;8311;50.158;8.642;2023-08-06T10:14:15;22.60;64.30
16404;DHT22;8311;50.158;8.642;2023-08-06T10:17:09;22.50;64.10
16404;DHT22;8311;50.158;8.642;2023-08-06T10:20:05;22.60;64.00
16404;DHT22;8311;50.158;8.642;2023-08-06T10:23:03;22.50;63.90
16404;DHT22;8311;50.158;8.642;2023-08-06T10:25:56;22.50;64.00
16404;DHT22;8311;50.158;8.642;2023-08-06T10:28:49;22.50;64.00
16404;DHT22;8311;50.158;8.642;2023-08-06T10:31:54;22.50;64.00
16404;DHT22;8311;50.158;8.642;2023-08-06T10:34:55;22.50;64.00
16404;DHT22;8311;50.158;8.642;2023-08-06T10:37:51;22.50;64.00
16404;DHT22;8311;50.158;8.642;2023-08-06T10:40:48;22.50;64.00
16404;DHT22;8311;50.158;8.642;2023-08-06T10:43:42;22.50;64.00
16404;DHT22;8311;50.158;8.642;2023-08-06T10:46:38;22.50;64.00
16404;DHT22;8311;50.158;8.642;2023-08-06T10:49:31;22.50;64.00
16404;DHT22;8311;50.158;8.642;2023-08-06T10:52:25;22.50;64.10
16404;DHT22;8311;50.158;8.642;2023-08-06T10:55:27;22.50;64.10
16404;DHT22;8311;50.158;8.642;2023-08-06T10:58:21;22.50;64.80
16404;DHT22;8311;50.158;8.642;2023-08-06T11:01:16;22.50;64.10
16404;DHT22;8311;50.158;8.642;2023-08-06T11:04:09;22.50;64.00
16404;DHT22;8311;50.158;8.642;2023-08-06T11:07:08;22.50;64.10
16404;DHT22;8311;50.158;8.642;2023-08-06T11:10:02;22.50;64.10
16404;DHT22;8311;50.158;8.642;2023-08-06T11:13:02;22.50;64.00
16404;DHT22;8311;50.158;8.642;2023-08-06T11:15:55;22.50;64.90
16404;DHT22;8311;50.158;8.642;2023-08-06T11:18:50;22.50;64.10
16404;DHT22;8311;50.158;8.642;2023-08-06T11:21:44;22.50;64.10
16404;DHT22;8311;50.158;8.642;2023-08-06T11:24:39;22.50;64.10
16404;DHT22;8311;50.158;8.642;2023-08-06T11:27:32;22.50;64.20
16404;DHT22;8311;50.158;8.642;2023-08-06T11:30:28;22.50;64.30
16404;DHT22;8311;50.158;8.642;2023-08-06T11:33:21;22.50;64.40
16404;DHT22;8311;50.158;8.642;2023-08-06T11:36:28;22.50;64.60
16404;DHT22;8311;50.158;8.642;2023-08-06T11:39:22;22.50;64.80
16404;DHT22;8311;50.158;8.642;2023-08-06T11:42:15;22.50;64.10
16404;DHT22;8311;50.158;8.642;2023-08-06T11:45:08;22.50;64.40
16404;DHT22;8311;50.158;8.642;2023-08-06T11:48:03;22.50;64.30
16404;DHT22;8311;50.158;8.642;2023-08-06T11:50:57;22.50;64.20
16404;DHT22;8311;50.158;8.642;2023-08-06T11:53:51;22.50;64.20
16404;DHT22;8311;50.158;8.642;2023-08-06T11:56:46;22.50;64.20
16404;DHT22;8311;50.158;8.642;2023-08-06T11:59:39;22.50;64.00
16404;DHT22;8311;50.158;8.642;2023-08-06T12:02:34;22.50;64.00
16404;DHT22;8311;50.158;8.642;2023-08-06T12:05:31;22.50;64.00
16404;DHT22;8311;50.158;8.642;2023-08-06T12:08:26;22.50;64.00
16404;DHT22;8311;50.158;8.642;2023-08-06T12:11:21;22.50;64.00
16404;DHT22;8311;50.158;8.642;2023-08-06T12:14:14;22.50;64.00
16404;DHT22;8311;50.158;8.642;2023-08-06T12:17:07;22.50;64.00
16404;DHT22;8311;50.158;8.642;2023-08-06T12:20:00;22.50;63.90
16404;DHT22;8311;50.158;8.642;2023-08-06T12:22:55;22.50;64.00
16404;DHT22;8311;50.158;8.642;2023-08-06T12:25:49;22.50;63.90
16404;DHT22;8311;50.158;8.642;2023-08-06T12:28:42;22.50;63.90
16404;DHT22;8311;50.158;8.642;2023-08-06T12:31:35;22.50;63.80
16404;DHT22;8311;50.158;8.642;2023-08-06T12:34:29;22.50;63.80
16404;DHT22;8311;50.158;8.642;2023-08-06T12:37:42;22.50;63.80
16404;DHT22;8311;50.158;8.642;2023-08-06T12:40:37;22.50;63.80
16404;DHT22;8311;50.158;8.642;2023-08-06T12:43:34;22.50;63.80
16404;DHT22;8311;50.158;8.642;2023-08-06T12:46:27;22.50;63.80
16404;DHT22;8311;50.158;8.642;2023-08-06T12:49:25;22.50;63.80
16404;DHT22;8311;50.158;8.642;2023-08-06T12:52:18;22.50;63.80
16404;DHT22;8311;50.158;8.642;2023-08-06T12:55:11;22.50;63.80
16404;DHT22;8311;50.158;8.642;2023-08-06T12:58:05;22.50;63.90
16404;DHT22;8311;50.158;8.642;2023-08-06T13:00:59;22.50;63.80
16404;DHT22;8311;50.158;8.642;2023-08-06T13:03:52;22.50;63.90
16404;DHT22;8311;50.158;8.642;2023-08-06T13:07:02;22.50;63.80
16404;DHT22;8311;50.158;8.642;2023-08-06T13:09:55;22.50;63.90
16404;DHT22;8311;50.158;8.642;2023-08-06T13:12:49;22.50;63.80
16404;DHT22;8311;50.158;8.642;2023-08-06T13:15:44;22.50;63.80
16404;DHT22;8311;50.158;8.642;2023-08-06T13:18:37;22.50;64.70
16404;DHT22;8311;50.158;8.642;2023-08-06T13:21:32;22.50;63.80
16404;DHT22;8311;50.158;8.642;2023-08-06T13:24:26;22.50;63.80
16404;DHT22;8311;50.158;8.642;2023-08-06T13:27:21;22.40;63.80
16404;DHT22;8311;50.158;8.642;2023-08-06T13:30:14;22.40;63.80
16404;DHT22;8311;50.158;8.642;2023-08-06T13:33:09;22.50;63.80
16404;DHT22;8311;50.158;8.642;2023-08-06T13:36:02;22.40;63.70
16404;DHT22;8311;50.158;8.642;2023-08-06T13:38:56;22.40;63.80
16404;DHT22;8311;50.158;8.642;2023-08-06T13:41:50;22.50;63.80
16404;DHT22;8311;50.158;8.642;2023-08-06T13:44:43;22.40;63.70
16404;DHT22;8311;50.158;8.642;2023-08-06T13:47:36;22.50;63.80
16404;DHT22;8311;50.158;8.642;2023-08-06T13:50:32;22.50;63.90
16404;DHT22;8311;50.158;8.642;2023-08-06T13:53:25;22.50;63.80
16404;DHT22;8311;50.158;8.642;2023-08-06T13:56:22;22.40;63.70
16404;DHT22;8311;50.158;8.642;2023-08-06T13:59:16;22.40;63.70
16404;DHT22;8311;50.158;8.642;2023-08-06T14:02:12;22.40;63.70
16404;DHT22;8311;50.158;8.642;2023-08-06T14:05:05;22.40;63.60
16404;DHT22;8311;50.158;8.642;2023-08-06T14:08:03;22.50;63.80
16404;DHT22;8311;50.158;8.642;2023-08-06T14:10:56;22.40;63.70
16404;DHT22;8311;50.158;8.642;2023-08-06T14:13:50;22.40;63.60
16404;DHT22;8311;50.158;8.642;2023-08-06T14:16:43;22.50;63.80
16404;DHT22;8311;50.158;8.642;2023-08-06T14:19:36;22.50;63.70
16404;DHT22;8311;50.158;8.642;2023-08-06T14:22:29;22.40;63.70
16404;DHT22;8311;50.158;8.642;2023-08-06T14:25:25;22.40;63.60
16404;DHT22;8311;50.158;8.642;2023-08-06T14:28:18;22.40;63.60
16404;DHT22;8311;50.158;8.642;2023-08-06T14:31:11;22.40;63.70
16404;DHT22;8311;50.158;8.642;2023-08-06T14:34:06;22.40;63.70
16404;DHT22;8311;50.158;8.642;2023-08-06T14:36:59;22.40;63.60
16404;DHT22;8311;50.158;8.642;2023-08-06T14:39:52;22.40;63.60
16404;DHT22;8311;50.158;8.642;2023-08-06T14:42:47;22.40;63.60
16404;DHT22;8311;50.158;8.642;2023-08-06T14:45:40;22.40;63.60
16404;DHT22;8311;50.158;8.642;2023-08-06T14:48:34;22.40;63.50
16404;DHT22;8311;50.158;8.642;2023-08-06T14:51:28;22.40;63.60
16404;DHT22;8311;50.158;8.642;2023-08-06T14:54:21;22.40;63.60
16404;DHT22;8311;50.158;8.642;2023-08-06T14:57:15;22.40;63.50
16404;DHT22;8311;50.158;8.642;2023-08-06T15:00:11;22.40;63.60
16404;DHT22;8311;50.158;8.642;2023-08-06T15:03:04;22.40;63.60
16404;DHT22;8311;50.158;8.642;2023-08-06T15:05:57;22.40;63.60
16404;DHT22;8311;50.158;8.642;2023-08-06T15:08:50;22.40;63.60
16404;DHT22;8311;50.158;8.642;2023-08-06T15:11:43;22.40;63.60
16404;DHT22;8311;50.158;8.642;2023-08-06T15:14:36;22.40;63.60
16404;DHT22;8311;50.158;8.642;2023-08-06T15:17:31;22.40;63.50
16404;DHT22;8311;50.158;8.642;2023-08-06T15:20:24;22.40;63.50
16404;DHT22;8311;50.158;8.642;2023-08-06T15:23:18;22.40;63.60
16404;DHT22;8311;50.158;8.642;2023-08-06T15:26:11;22.40;63.50
16404;DHT22;8311;50.158;8.642;2023-08-06T15:29:04;22.40;63.60
16404;DHT22;8311;50.158;8.642;2023-08-06T15:31:58;22.40;63.60
16404;DHT22;8311;50.158;8.642;2023-08-06T15:34:53;22.40;63.60
16404;DHT22;8311;50.158;8.642;2023-08-06T15:37:47;22.40;63.60
16404;DHT22;8311;50.158;8.642;2023-08-06T15:40:40;22.40;63.50
16404;DHT22;8311;50.158;8.642;2023-08-06T15:43:34;22.40;63.60
16404;DHT22;8311;50.158;8.642;2023-08-06T15:46:27;22.40;63.50
16404;DHT22;8311;50.158;8.642;2023-08-06T15:49:20;22.40;63.60
16404;DHT22;8311;50.158;8.642;2023-08-06T15:52:16;22.40;63.50
16404;DHT22;8311;50.158;8.642;2023-08-06T15:55:09;22.40;63.60
16404;DHT22;8311;50.158;8.642;2023-08-06T15:58:02;22.40;63.60
16404;DHT22;8311;50.158;8.642;2023-08-06T16:00:56;22.40;63.50
16404;DHT22;8311;50.158;8.642;2023-08-06T16:03:49;22.40;63.50
16404;DHT22;8311;50.158;8.642;2023-08-06T16:06:44;22.40;63.50
16404;DHT22;8311;50.158;8.642;2023-08-06T16:09:38;22.40;63.50
16404;DHT22;8311;50.158;8.642;2023-08-06T16:12:32;22.40;63.50
16404;DHT22;8311;50.158;8.642;2023-08-06T16:15:25;22.40;63.50
16404;DHT22;8311;50.158;8.642;2023-08-06T16:18:18;22.40;63.50
16404;DHT22;8311;50.158;8.642;2023-08-06T16:21:11;22.40;63.50
16404;DHT22;8311;50.158;8.642;2023-08-06T16:24:04;22.40;63.50
16404;DHT22;8311;50.158;8.642;2023-08-06T16:26:58;22.40;63.50
16404;DHT22;8311;50.158;8.642;2023-08-06T16:29:53;22.40;63.50
16404;DHT22;8311;50.158;8.642;2023-08-06T16:32:46;22.40;63.50
16404;DHT22;8311;50.158;8.642;2023-08-06T16:35:40;22.40;63.60
16404;DHT22;8311;50.158;8.642;2023-08-06T16:38:34;22.40;63.50
16404;DHT22;8311;50.158;8.642;2023-08-06T16:41:27;22.40;63.50
16404;DHT22;8311;50.158;8.642;2023-08-06T16:44:22;22.40;63.50
16404;DHT22;8311;50.158;8.642;2023-08-06T16:47:16;22.40;63.50
16404;DHT22;8311;50.158;8.642;2023-08-06T16:50:09;22.40;63.50
16404;DHT22;8311;50.158;8.642;2023-08-06T16:53:02;22.40;63.50
16404;DHT22;8311;50.158;8.642;2023-08-06T16:55:57;22.40;63.50
16404;DHT22;8311;50.158;8.642;2023-08-06T16:58:50;22.40;63.50
16404;DHT22;8311;50.158;8.642;2023-08-06T17:01:45;22.40;63.50
16404;DHT22;8311;50.158;8.642;2023-08-06T17:04:38;22.40;63.50
16404;DHT22;8311;50.158;8.642;2023-08-06T17:07:31;22.40;63.40
16404;DHT22;8311;50.158;8.642;2023-08-06T17:10:24;22.40;63.40
16404;DHT22;8311;50.158;8.642;2023-08-06T17:13:17;22.40;63.30
16404;DHT22;8311;50.158;8.642;2023-08-06T17:16:12;22.40;63.30
16404;DHT22;8311;50.158;8.642;2023-08-06T17:19:07;22.40;63.30
16404;DHT22;8311;50.158;8.642;2023-08-06T17:22:00;22.30;63.10
16404;DHT22;8311;50.158;8.642;2023-08-06T17:24:53;22.30;63.20
16404;DHT22;8311;50.158;8.642;2023-08-06T17:27:46;22.30;63.20
16404;DHT22;8311;50.158;8.642;2023-08-06T17:30:40;22.40;63.20
16404;DHT22;8311;50.158;8.642;2023-08-06T17:33:33;22.40;63.20
16404;DHT22;8311;50.158;8.642;2023-08-06T17:36:28;22.30;63.20
16404;DHT22;8311;50.158;8.642;2023-08-06T17:39:21;22.40;63.20
16404;DHT22;8311;50.158;8.642;2023-08-06T17:42:14;22.30;63.20
16404;DHT22;8311;50.158;8.642;2023-08-06T17:45:08;22.30;63.20
16404;DHT22;8311;50.158;8.642;2023-08-06T17:48:02;22.30;63.20
16404;DHT22;8311;50.158;8.642;2023-08-06T17:50:55;22.30;64.00
16404;DHT22;8311;50.158;8.642;2023-08-06T17:53:50;22.30;63.20
16404;DHT22;8311;50.158;8.642;2023-08-06T17:56:45;22.40;63.30
16404;DHT22;8311;50.158;8.642;2023-08-06T17:59:38;22.40;63.20
16404;DHT22;8311;50.158;8.642;2023-08-06T18:02:31;22.30;63.20
16404;DHT22;8311;50.158;8.642;2023-08-06T18:05:26;22.30;63.20
16404;DHT22;8311;50.158;8.642;2023-08-06T18:08:28;22.30;63.20
16404;DHT22;8311;50.158;8.642;2023-08-06T18:11:24;22.30;63.20
16404;DHT22;8311;50.158;8.642;2023-08-06T18:14:17;22.30;63.10
16404;DHT22;8311;50.158;8.642;2023-08-06T18:17:11;22.30;63.90
16404;DHT22;8311;50.158;8.642;2023-08-06T18:20:06;22.40;63.20
16404;DHT22;8311;50.158;8.642;2023-08-06T18:22:59;22.30;63.10
16404;DHT22;8311;50.158;8.642;2023-08-06T18:25:53;22.30;63.10
16404;DHT22;8311;50.158;8.642;2023-08-06T18:28:48;22.30;63.10
16404;DHT22;8311;50.158;8.642;2023-08-06T18:31:42;22.30;63.10
16404;DHT22;8311;50.158;8.642;2023-08-06T18:34:35;22.30;63.10
16404;DHT22;8311;50.158;8.642;2023-08-06T18:37:28;22.30;63.10